AUI3105 UKDE-UKOO
Flight info
| Callsign | AUI3105 |
|---|---|
| Flight time | N/A |
| Altitude | 30000 |
| Route | DITIX N604 KIFUZ L140 BANID |
| Aircraft | B738/M-SDE2E3FGHIRWXY/LB1 |
Departure
| Time | 2026-05-07 15:13 |
|---|---|
| Airport | Zaporizhzhia International Airport (UKDE) |
Arrival
| Time | N/A |
|---|---|
| Airport | Odesa International Airport (UKOO) |
| Time | Latitude | Longitude | Altitude | Speed | Heading |
|---|---|---|---|---|---|
| 2026-05-07 14:56 | 47.87171 | 35.30235 | 384 ft | 0 kts | 235° |
| 2026-05-07 15:07 | 47.87162 | 35.30217 | 383 ft | 7 kts | 232° |
| 2026-05-07 15:07 | 47.87089 | 35.30239 | 383 ft | 15 kts | 147° |
| 2026-05-07 15:07 | 47.87067 | 35.30340 | 383 ft | 11 kts | 60° |
| 2026-05-07 15:07 | 47.87058 | 35.30424 | 383 ft | 10 kts | 144° |
| 2026-05-07 15:08 | 47.86999 | 35.30479 | 383 ft | 16 kts | 148° |
| 2026-05-07 15:08 | 47.86944 | 35.30529 | 383 ft | 14 kts | 150° |
| 2026-05-07 15:08 | 47.86871 | 35.30591 | 383 ft | 10 kts | 147° |
| 2026-05-07 15:08 | 47.86794 | 35.30661 | 383 ft | 14 kts | 153° |
| 2026-05-07 15:09 | 47.86699 | 35.30744 | 383 ft | 16 kts | 148° |
| 2026-05-07 15:09 | 47.86610 | 35.30851 | 383 ft | 17 kts | 129° |
| 2026-05-07 15:09 | 47.86589 | 35.31025 | 383 ft | 17 kts | 92° |
| 2026-05-07 15:09 | 47.86586 | 35.31205 | 383 ft | 17 kts | 98° |
| 2026-05-07 15:10 | 47.86573 | 35.31379 | 383 ft | 17 kts | 92° |
| 2026-05-07 15:10 | 47.86641 | 35.31473 | 383 ft | 14 kts | 21° |
| 2026-05-07 15:10 | 47.86737 | 35.31528 | 383 ft | 16 kts | 21° |
| 2026-05-07 15:10 | 47.86858 | 35.31599 | 383 ft | 21 kts | 22° |
| 2026-05-07 15:11 | 47.87048 | 35.31715 | 383 ft | 37 kts | 22° |
| 2026-05-07 15:11 | 47.87328 | 35.31884 | 383 ft | 48 kts | 20° |
| 2026-05-07 15:11 | 47.87546 | 35.32014 | 383 ft | 21 kts | 25° |
| 2026-05-07 15:11 | 47.87648 | 35.32096 | 383 ft | 14 kts | 25° |
| 2026-05-07 15:12 | 47.87711 | 35.32161 | 383 ft | 6 kts | 20° |
| 2026-05-07 15:12 | 47.87713 | 35.32118 | 383 ft | 9 kts | 196° |
| 2026-05-07 15:12 | 47.87676 | 35.32105 | 383 ft | 0 kts | 200° |
| 2026-05-07 15:13 | 47.87613 | 35.32067 | 383 ft | 39 kts | 204° |
| 2026-05-07 15:13 | 47.87108 | 35.31741 | 384 ft | 116 kts | 205° |
| 2026-05-07 15:13 | 47.86165 | 35.31228 | 543 ft | 160 kts | 205° |
| 2026-05-07 15:13 | 47.85101 | 35.30751 | 1221 ft | 172 kts | 200° |
| 2026-05-07 15:14 | 47.83923 | 35.30210 | 1901 ft | 184 kts | 199° |
| 2026-05-07 15:14 | 47.82701 | 35.29679 | 2586 ft | 187 kts | 205° |
| 2026-05-07 15:14 | 47.81523 | 35.28964 | 3345 ft | 180 kts | 213° |
| 2026-05-07 15:14 | 47.80648 | 35.27772 | 3946 ft | 175 kts | 247° |
| 2026-05-07 15:15 | 47.80538 | 35.25938 | 4255 ft | 188 kts | 286° |
| 2026-05-07 15:15 | 47.81136 | 35.24141 | 4580 ft | 206 kts | 303° |
| 2026-05-07 15:15 | 47.81990 | 35.22290 | 4775 ft | 229 kts | 303° |
| 2026-05-07 15:15 | 47.82651 | 35.20088 | 5190 ft | 246 kts | 284° |
| 2026-05-07 15:16 | 47.82699 | 35.17513 | 5995 ft | 254 kts | 266° |
| 2026-05-07 15:16 | 47.82368 | 35.14885 | 6657 ft | 270 kts | 251° |
| 2026-05-07 15:16 | 47.81438 | 35.12408 | 7391 ft | 281 kts | 238° |
| 2026-05-07 15:16 | 47.80398 | 35.09945 | 8231 ft | 285 kts | 242° |
| 2026-05-07 15:17 | 47.79447 | 35.07344 | 9047 ft | 289 kts | 244° |